sensor_id;sensor_type;location;lat;lon;timestamp;P1;P2;P0
69222;PMS7003;56514;51.816;-0.026;2022-10-18T00:02:27;1.75;1.75;1.75
69222;PMS7003;56514;51.816;-0.026;2022-10-18T00:05:12;1.50;1.50;1.00
69222;PMS7003;56514;51.816;-0.026;2022-10-18T00:07:57;1.00;1.00;1.00
69222;PMS7003;56514;51.816;-0.026;2022-10-18T00:10:43;1.00;1.00;0.50
69222;PMS7003;56514;51.816;-0.026;2022-10-18T00:13:31;1.00;1.00;1.00
69222;PMS7003;56514;51.816;-0.026;2022-10-18T00:16:16;1.00;1.00;0.75
69222;PMS7003;56514;51.816;-0.026;2022-10-18T00:19:02;1.00;1.00;1.00
69222;PMS7003;56514;51.816;-0.026;2022-10-18T00:21:49;0.25;0.25;0.25
69222;PMS7003;56514;51.816;-0.026;2022-10-18T00:24:34;1.25;1.25;1.00
69222;PMS7003;56514;51.816;-0.026;2022-10-18T00:27:19;1.75;1.75;1.00
69222;PMS7003;56514;51.816;-0.026;2022-10-18T00:30:04;1.00;1.00;1.00
69222;PMS7003;56514;51.816;-0.026;2022-10-18T00:32:50;1.50;1.50;1.25
69222;PMS7003;56514;51.816;-0.026;2022-10-18T00:35:34;1.00;1.00;1.00
69222;PMS7003;56514;51.816;-0.026;2022-10-18T00:38:19;1.00;1.00;1.00
69222;PMS7003;56514;51.816;-0.026;2022-10-18T00:41:04;1.00;1.00;0.50
69222;PMS7003;56514;51.816;-0.026;2022-10-18T00:46:44;1.00;1.00;1.00
69222;PMS7003;56514;51.816;-0.026;2022-10-18T00:49:44;0.50;0.50;0.00
69222;PMS7003;56514;51.816;-0.026;2022-10-18T00:52:33;1.00;1.00;1.00
69222;PMS7003;56514;51.816;-0.026;2022-10-18T00:55:21;1.00;1.00;0.50
69222;PMS7003;56514;51.816;-0.026;2022-10-18T00:58:06;0.75;0.75;0.25
69222;PMS7003;56514;51.816;-0.026;2022-10-18T01:00:53;1.00;1.00;1.00
69222;PMS7003;56514;51.816;-0.026;2022-10-18T01:03:38;1.00;1.00;1.00
69222;PMS7003;56514;51.816;-0.026;2022-10-18T01:06:24;1.00;1.00;1.00
69222;PMS7003;56514;51.816;-0.026;2022-10-18T01:15:30;2.75;2.75;1.50
69222;PMS7003;56514;51.816;-0.026;2022-10-18T01:18:33;0.25;0.25;0.00
69222;PMS7003;56514;51.816;-0.026;2022-10-18T01:21:36;3.00;3.00;2.75
69222;PMS7003;56514;51.816;-0.026;2022-10-18T01:27:48;4.00;4.00;2.75
69222;PMS7003;56514;51.816;-0.026;2022-10-18T01:30:59;3.25;3.25;1.50
69222;PMS7003;56514;51.816;-0.026;2022-10-18T01:34:01;2.75;2.75;2.75
69222;PMS7003;56514;51.816;-0.026;2022-10-18T01:36:50;0.75;0.75;0.75
69222;PMS7003;56514;51.816;-0.026;2022-10-18T01:39:40;2.50;2.50;1.25
69222;PMS7003;56514;51.816;-0.026;2022-10-18T01:42:29;2.00;2.00;1.00
69222;PMS7003;56514;51.816;-0.026;2022-10-18T01:45:14;1.00;1.00;1.00
69222;PMS7003;56514;51.816;-0.026;2022-10-18T01:48:00;1.00;1.00;1.00
69222;PMS7003;56514;51.816;-0.026;2022-10-18T01:50:46;3.00;3.00;3.00
69222;PMS7003;56514;51.816;-0.026;2022-10-18T01:53:32;3.00;3.00;1.00
69222;PMS7003;56514;51.816;-0.026;2022-10-18T02:05:55;3.25;3.25;1.50
69222;PMS7003;56514;51.816;-0.026;2022-10-18T02:08:49;1.00;1.00;1.00
69222;PMS7003;56514;51.816;-0.026;2022-10-18T02:11:38;1.50;1.50;1.00
69222;PMS7003;56514;51.816;-0.026;2022-10-18T02:14:26;1.50;1.50;1.50
69222;PMS7003;56514;51.816;-0.026;2022-10-18T02:17:13;0.50;0.50;0.25
69222;PMS7003;56514;51.816;-0.026;2022-10-18T02:20:00;1.00;1.00;1.00
69222;PMS7003;56514;51.816;-0.026;2022-10-18T02:22:47;1.00;1.00;0.75
69222;PMS7003;56514;51.816;-0.026;2022-10-18T02:25:35;1.00;1.00;0.50
69222;PMS7003;56514;51.816;-0.026;2022-10-18T02:28:23;3.00;3.00;1.50
69222;PMS7003;56514;51.816;-0.026;2022-10-18T02:34:06;3.50;3.50;3.00
69222;PMS7003;56514;51.816;-0.026;2022-10-18T02:37:00;3.00;3.00;1.00
69222;PMS7003;56514;51.816;-0.026;2022-10-18T02:39:47;2.50;2.50;1.00
69222;PMS7003;56514;51.816;-0.026;2022-10-18T02:42:38;2.50;2.50;2.50
69222;PMS7003;56514;51.816;-0.026;2022-10-18T02:45:31;3.50;3.50;3.00
69222;PMS7003;56514;51.816;-0.026;2022-10-18T02:48:17;3.50;3.50;3.00
69222;PMS7003;56514;51.816;-0.026;2022-10-18T02:51:02;4.00;3.50;1.00
69222;PMS7003;56514;51.816;-0.026;2022-10-18T02:53:47;2.00;2.00;1.00
69222;PMS7003;56514;51.816;-0.026;2022-10-18T02:56:32;3.25;3.25;2.75
69222;PMS7003;56514;51.816;-0.026;2022-10-18T02:59:17;4.00;4.00;3.00
69222;PMS7003;56514;51.816;-0.026;2022-10-18T03:02:02;1.00;1.00;1.00
69222;PMS7003;56514;51.816;-0.026;2022-10-18T03:04:47;1.00;1.00;1.00
69222;PMS7003;56514;51.816;-0.026;2022-10-18T03:07:33;2.00;2.00;0.75
69222;PMS7003;56514;51.816;-0.026;2022-10-18T03:10:18;1.00;1.00;1.00
69222;PMS7003;56514;51.816;-0.026;2022-10-18T03:13:03;1.00;1.00;0.75
69222;PMS7003;56514;51.816;-0.026;2022-10-18T03:15:48;1.00;1.00;1.00
69222;PMS7003;56514;51.816;-0.026;2022-10-18T03:18:33;1.00;1.00;0.50
69222;PMS7003;56514;51.816;-0.026;2022-10-18T03:21:18;4.00;4.00;3.50
69222;PMS7003;56514;51.816;-0.026;2022-10-18T03:24:03;3.00;3.00;3.00
69222;PMS7003;56514;51.816;-0.026;2022-10-18T03:26:48;3.25;3.25;3.00
69222;PMS7003;56514;51.816;-0.026;2022-10-18T03:29:33;3.75;3.75;3.25
69222;PMS7003;56514;51.816;-0.026;2022-10-18T03:32:18;4.00;4.00;3.25
69222;PMS7003;56514;51.816;-0.026;2022-10-18T03:35:04;4.00;4.00;4.00
69222;PMS7003;56514;51.816;-0.026;2022-10-18T03:37:49;3.00;3.00;2.50
69222;PMS7003;56514;51.816;-0.026;2022-10-18T03:40:34;1.00;1.00;1.00
69222;PMS7003;56514;51.816;-0.026;2022-10-18T03:43:20;3.00;3.00;2.00
69222;PMS7003;56514;51.816;-0.026;2022-10-18T03:46:06;3.00;3.00;3.00
69222;PMS7003;56514;51.816;-0.026;2022-10-18T03:48:51;2.00;2.00;1.00
69222;PMS7003;56514;51.816;-0.026;2022-10-18T03:51:36;3.50;3.50;3.00
69222;PMS7003;56514;51.816;-0.026;2022-10-18T03:54:21;3.00;3.00;1.50
69222;PMS7003;56514;51.816;-0.026;2022-10-18T03:57:05;3.25;3.25;2.00
69222;PMS7003;56514;51.816;-0.026;2022-10-18T03:59:50;3.00;3.00;3.00
69222;PMS7003;56514;51.816;-0.026;2022-10-18T04:02:35;3.00;3.00;2.00
69222;PMS7003;56514;51.816;-0.026;2022-10-18T04:05:20;1.00;1.00;0.00
69222;PMS7003;56514;51.816;-0.026;2022-10-18T04:08:07;1.00;1.00;1.00
69222;PMS7003;56514;51.816;-0.026;2022-10-18T04:10:52;2.00;2.00;2.00
69222;PMS7003;56514;51.816;-0.026;2022-10-18T04:13:37;1.50;1.50;1.50
69222;PMS7003;56514;51.816;-0.026;2022-10-18T04:16:22;2.75;2.75;1.50
69222;PMS7003;56514;51.816;-0.026;2022-10-18T04:19:07;3.25;3.25;3.00
69222;PMS7003;56514;51.816;-0.026;2022-10-18T04:21:52;3.00;3.00;1.00
69222;PMS7003;56514;51.816;-0.026;2022-10-18T04:24:37;5.50;5.50;3.75
69222;PMS7003;56514;51.816;-0.026;2022-10-18T04:27:22;3.50;3.50;2.50
69222;PMS7003;56514;51.816;-0.026;2022-10-18T04:30:07;3.50;3.50;3.00
69222;PMS7003;56514;51.816;-0.026;2022-10-18T04:32:53;4.00;4.00;3.00
69222;PMS7003;56514;51.816;-0.026;2022-10-18T04:35:38;3.75;3.75;3.00
69222;PMS7003;56514;51.816;-0.026;2022-10-18T04:38:24;3.00;3.00;2.00
69222;PMS7003;56514;51.816;-0.026;2022-10-18T04:41:09;0.25;0.25;0.00
69222;PMS7003;56514;51.816;-0.026;2022-10-18T04:43:54;1.50;1.50;1.00
69222;PMS7003;56514;51.816;-0.026;2022-10-18T04:46:39;1.00;1.00;1.00
69222;PMS7003;56514;51.816;-0.026;2022-10-18T04:49:23;3.50;3.50;2.00
69222;PMS7003;56514;51.816;-0.026;2022-10-18T04:52:09;2.00;2.00;1.00
69222;PMS7003;56514;51.816;-0.026;2022-10-18T04:54:54;3.75;3.75;1.50
69222;PMS7003;56514;51.816;-0.026;2022-10-18T04:57:39;2.00;2.00;1.50
69222;PMS7003;56514;51.816;-0.026;2022-10-18T05:00:25;3.00;3.00;1.50
69222;PMS7003;56514;51.816;-0.026;2022-10-18T05:03:12;4.25;4.25;3.75
69222;PMS7003;56514;51.816;-0.026;2022-10-18T05:05:58;3.75;3.75;3.00
69222;PMS7003;56514;51.816;-0.026;2022-10-18T05:08:43;3.50;3.50;2.00
69222;PMS7003;56514;51.816;-0.026;2022-10-18T05:11:28;6.33;6.33;4.67
69222;PMS7003;56514;51.816;-0.026;2022-10-18T05:14:13;13.25;13.25;9.50
69222;PMS7003;56514;51.816;-0.026;2022-10-18T05:16:58;14.00;14.00;9.00
69222;PMS7003;56514;51.816;-0.026;2022-10-18T05:19:43;12.25;12.25;8.00
69222;PMS7003;56514;51.816;-0.026;2022-10-18T05:22:28;1.50;1.50;1.00
69222;PMS7003;56514;51.816;-0.026;2022-10-18T05:25:12;4.00;4.00;3.75
69222;PMS7003;56514;51.816;-0.026;2022-10-18T05:27:58;2.50;2.50;2.50
69222;PMS7003;56514;51.816;-0.026;2022-10-18T05:30:42;6.25;6.00;4.00
69222;PMS7003;56514;51.816;-0.026;2022-10-18T05:33:30;5.50;5.50;3.75
69222;PMS7003;56514;51.816;-0.026;2022-10-18T05:36:15;7.00;6.00;3.00
69222;PMS7003;56514;51.816;-0.026;2022-10-18T05:39:04;4.00;4.00;3.00
69222;PMS7003;56514;51.816;-0.026;2022-10-18T05:41:48;4.00;4.00;2.33
69222;PMS7003;56514;51.816;-0.026;2022-10-18T05:44:33;5.50;5.50;3.00
69222;PMS7003;56514;51.816;-0.026;2022-10-18T05:47:18;5.00;5.00;4.00
69222;PMS7003;56514;51.816;-0.026;2022-10-18T05:50:03;3.00;3.00;2.00
69222;PMS7003;56514;51.816;-0.026;2022-10-18T05:52:54;3.00;3.00;3.00
69222;PMS7003;56514;51.816;-0.026;2022-10-18T05:55:40;7.00;7.00;4.00
69222;PMS7003;56514;51.816;-0.026;2022-10-18T05:58:25;4.00;3.50;3.00
69222;PMS7003;56514;51.816;-0.026;2022-10-18T06:01:13;3.00;3.00;2.50
69222;PMS7003;56514;51.816;-0.026;2022-10-18T06:03:58;1.50;1.50;1.50
69222;PMS7003;56514;51.816;-0.026;2022-10-18T06:06:43;5.50;5.50;3.00
69222;PMS7003;56514;51.816;-0.026;2022-10-18T06:09:28;1.50;1.50;1.00
69222;PMS7003;56514;51.816;-0.026;2022-10-18T06:12:14;3.00;3.00;3.00
69222;PMS7003;56514;51.816;-0.026;2022-10-18T06:14:58;0.33;0.33;0.33
69222;PMS7003;56514;51.816;-0.026;2022-10-18T06:17:43;3.00;3.00;3.00
69222;PMS7003;56514;51.816;-0.026;2022-10-18T06:20:28;2.50;2.50;1.00
69222;PMS7003;56514;51.816;-0.026;2022-10-18T06:23:13;1.00;1.00;1.00
69222;PMS7003;56514;51.816;-0.026;2022-10-18T06:26:02;1.67;1.67;1.67
69222;PMS7003;56514;51.816;-0.026;2022-10-18T06:28:51;3.00;3.00;3.00
69222;PMS7003;56514;51.816;-0.026;2022-10-18T06:31:36;1.00;1.00;1.00
69222;PMS7003;56514;51.816;-0.026;2022-10-18T06:34:21;3.25;3.25;3.00
69222;PMS7003;56514;51.816;-0.026;2022-10-18T06:37:06;3.00;3.00;1.00
69222;PMS7003;56514;51.816;-0.026;2022-10-18T06:39:51;4.00;4.00;3.00
69222;PMS7003;56514;51.816;-0.026;2022-10-18T06:42:36;2.33;2.33;1.00
69222;PMS7003;56514;51.816;-0.026;2022-10-18T06:45:20;4.00;4.00;3.00
69222;PMS7003;56514;51.816;-0.026;2022-10-18T06:48:06;3.00;3.00;2.33
69222;PMS7003;56514;51.816;-0.026;2022-10-18T06:50:55;3.33;3.33;3.00
69222;PMS7003;56514;51.816;-0.026;2022-10-18T06:53:44;3.00;3.00;3.00
69222;PMS7003;56514;51.816;-0.026;2022-10-18T06:56:30;3.00;3.00;2.33
69222;PMS7003;56514;51.816;-0.026;2022-10-18T06:59:17;3.00;3.00;2.33
69222;PMS7003;56514;51.816;-0.026;2022-10-18T07:02:03;1.00;1.00;1.00
69222;PMS7003;56514;51.816;-0.026;2022-10-18T07:04:48;1.00;1.00;1.00
69222;PMS7003;56514;51.816;-0.026;2022-10-18T07:07:33;1.00;1.00;1.00
69222;PMS7003;56514;51.816;-0.026;2022-10-18T07:10:18;1.00;1.00;1.00
69222;PMS7003;56514;51.816;-0.026;2022-10-18T07:13:04;3.00;3.00;1.00
69222;PMS7003;56514;51.816;-0.026;2022-10-18T07:15:58;3.67;3.67;3.00
69222;PMS7003;56514;51.816;-0.026;2022-10-18T07:18:57;1.00;1.00;0.67
69222;PMS7003;56514;51.816;-0.026;2022-10-18T07:21:42;1.00;1.00;1.00
69222;PMS7003;56514;51.816;-0.026;2022-10-18T07:24:28;3.00;3.00;1.00
69222;PMS7003;56514;51.816;-0.026;2022-10-18T07:27:12;0.00;0.00;0.00
69222;PMS7003;56514;51.816;-0.026;2022-10-18T07:29:57;3.67;3.67;3.00
69222;PMS7003;56514;51.816;-0.026;2022-10-18T07:32:42;3.67;3.67;3.00
69222;PMS7003;56514;51.816;-0.026;2022-10-18T07:35:29;1.00;1.00;0.75
69222;PMS7003;56514;51.816;-0.026;2022-10-18T07:38:14;1.00;1.00;1.00
69222;PMS7003;56514;51.816;-0.026;2022-10-18T07:41:00;2.00;2.00;1.50
69222;PMS7003;56514;51.816;-0.026;2022-10-18T07:43:48;4.00;4.00;3.00
69222;PMS7003;56514;51.816;-0.026;2022-10-18T07:46:35;0.00;0.00;0.00
69222;PMS7003;56514;51.816;-0.026;2022-10-18T07:49:19;3.00;3.00;1.50
69222;PMS7003;56514;51.816;-0.026;2022-10-18T07:52:05;6.00;6.00;3.50
69222;PMS7003;56514;51.816;-0.026;2022-10-18T07:54:50;4.00;4.00;3.25
69222;PMS7003;56514;51.816;-0.026;2022-10-18T07:57:35;3.50;3.50;3.00
69222;PMS7003;56514;51.816;-0.026;2022-10-18T08:00:19;3.50;3.50;3.00
69222;PMS7003;56514;51.816;-0.026;2022-10-18T08:03:05;4.00;4.00;3.00
69222;PMS7003;56514;51.816;-0.026;2022-10-18T08:05:51;6.00;6.00;4.50
69222;PMS7003;56514;51.816;-0.026;2022-10-18T08:08:37;1.00;1.00;1.00
69222;PMS7003;56514;51.816;-0.026;2022-10-18T08:11:24;3.00;3.00;2.50
69222;PMS7003;56514;51.816;-0.026;2022-10-18T08:14:09;6.00;6.00;4.00
69222;PMS7003;56514;51.816;-0.026;2022-10-18T08:16:54;4.50;4.50;3.25
69222;PMS7003;56514;51.816;-0.026;2022-10-18T08:19:40;3.25;3.25;3.00
69222;PMS7003;56514;51.816;-0.026;2022-10-18T08:22:25;2.50;2.50;1.00
69222;PMS7003;56514;51.816;-0.026;2022-10-18T08:25:11;3.75;3.75;3.25
69222;PMS7003;56514;51.816;-0.026;2022-10-18T08:27:56;3.00;3.00;3.00
69222;PMS7003;56514;51.816;-0.026;2022-10-18T08:30:41;1.50;1.50;0.00
69222;PMS7003;56514;51.816;-0.026;2022-10-18T08:33:26;1.00;1.00;1.00
69222;PMS7003;56514;51.816;-0.026;2022-10-18T08:36:13;4.75;4.75;3.50
69222;PMS7003;56514;51.816;-0.026;2022-10-18T08:39:00;1.25;1.25;1.25
69222;PMS7003;56514;51.816;-0.026;2022-10-18T08:44:42;2.25;2.25;2.00
69222;PMS7003;56514;51.816;-0.026;2022-10-18T08:50:26;1.00;1.00;0.00
69222;PMS7003;56514;51.816;-0.026;2022-10-18T08:53:29;4.00;4.00;2.50
69222;PMS7003;56514;51.816;-0.026;2022-10-18T08:56:24;2.00;2.00;2.00
69222;PMS7003;56514;51.816;-0.026;2022-10-18T08:59:11;2.00;2.00;2.00
69222;PMS7003;56514;51.816;-0.026;2022-10-18T09:05:38;1.75;1.75;1.50
69222;PMS7003;56514;51.816;-0.026;2022-10-18T09:15:01;4.00;4.00;2.00
69222;PMS7003;56514;51.816;-0.026;2022-10-18T09:21:20;2.50;2.50;2.00
69222;PMS7003;56514;51.816;-0.026;2022-10-18T09:24:43;5.00;5.00;2.00
69222;PMS7003;56514;51.816;-0.026;2022-10-18T09:27:41;4.25;4.25;3.50
69222;PMS7003;56514;51.816;-0.026;2022-10-18T09:30:42;5.50;5.50;4.25
69222;PMS7003;56514;51.816;-0.026;2022-10-18T09:36:45;7.50;7.50;5.00
69222;PMS7003;56514;51.816;-0.026;2022-10-18T09:39:35;7.00;7.00;5.00
69222;PMS7003;56514;51.816;-0.026;2022-10-18T09:42:30;6.50;6.50;4.50
69222;PMS7003;56514;51.816;-0.026;2022-10-18T09:45:31;2.00;2.00;2.00
69222;PMS7003;56514;51.816;-0.026;2022-10-18T09:48:26;1.00;1.00;1.00
69222;PMS7003;56514;51.816;-0.026;2022-10-18T09:51:15;1.00;1.00;1.00
69222;PMS7003;56514;51.816;-0.026;2022-10-18T09:57:05;1.00;1.00;0.75
69222;PMS7003;56514;51.816;-0.026;2022-10-18T10:00:20;0.75;0.75;0.00
69222;PMS7003;56514;51.816;-0.026;2022-10-18T10:03:11;0.00;0.00;0.00
69222;PMS7003;56514;51.816;-0.026;2022-10-18T10:11:45;0.50;0.50;0.00
69222;PMS7003;56514;51.816;-0.026;2022-10-18T10:14:42;0.25;0.25;0.00
69222;PMS7003;56514;51.816;-0.026;2022-10-18T10:17:27;1.00;1.00;0.00
69222;PMS7003;56514;51.816;-0.026;2022-10-18T10:20:22;1.00;1.00;1.00
69222;PMS7003;56514;51.816;-0.026;2022-10-18T10:23:28;0.00;0.00;0.00
69222;PMS7003;56514;51.816;-0.026;2022-10-18T10:32:44;0.00;0.00;0.00
69222;PMS7003;56514;51.816;-0.026;2022-10-18T10:38:24;0.00;0.00;0.00
69222;PMS7003;56514;51.816;-0.026;2022-10-18T10:41:21;0.00;0.00;0.00
69222;PMS7003;56514;51.816;-0.026;2022-10-18T10:44:18;0.00;0.00;0.00
69222;PMS7003;56514;51.816;-0.026;2022-10-18T10:47:05;0.00;0.00;0.00
69222;PMS7003;56514;51.816;-0.026;2022-10-18T10:49:50;0.00;0.00;0.00
69222;PMS7003;56514;51.816;-0.026;2022-10-18T10:52:35;0.00;0.00;0.00
69222;PMS7003;56514;51.816;-0.026;2022-10-18T10:55:24;0.00;0.00;0.00
69222;PMS7003;56514;51.816;-0.026;2022-10-18T10:58:15;0.00;0.00;0.00
69222;PMS7003;56514;51.816;-0.026;2022-10-18T11:10:17;0.00;0.00;0.00
69222;PMS7003;56514;51.816;-0.026;2022-10-18T11:13:20;0.00;0.00;0.00
69222;PMS7003;56514;51.816;-0.026;2022-10-18T11:16:22;0.00;0.00;0.00
69222;PMS7003;56514;51.816;-0.026;2022-10-18T11:19:26;0.00;0.00;0.00
69222;PMS7003;56514;51.816;-0.026;2022-10-18T11:22:18;0.00;0.00;0.00
69222;PMS7003;56514;51.816;-0.026;2022-10-18T11:25:07;0.00;0.00;0.00
69222;PMS7003;56514;51.816;-0.026;2022-10-18T11:28:10;0.00;0.00;0.00
69222;PMS7003;56514;51.816;-0.026;2022-10-18T11:42:51;0.00;0.00;0.00
69222;PMS7003;56514;51.816;-0.026;2022-10-18T12:07:01;0.00;0.00;0.00
69222;PMS7003;56514;51.816;-0.026;2022-10-18T12:09:49;0.00;0.00;0.00
69222;PMS7003;56514;51.816;-0.026;2022-10-18T12:12:41;0.00;0.00;0.00
69222;PMS7003;56514;51.816;-0.026;2022-10-18T12:15:35;0.00;0.00;0.00
69222;PMS7003;56514;51.816;-0.026;2022-10-18T12:18:23;0.00;0.00;0.00
69222;PMS7003;56514;51.816;-0.026;2022-10-18T12:21:13;0.00;0.00;0.00
69222;PMS7003;56514;51.816;-0.026;2022-10-18T12:23:58;0.00;0.00;0.00
69222;PMS7003;56514;51.816;-0.026;2022-10-18T12:26:50;0.00;0.00;0.00
69222;PMS7003;56514;51.816;-0.026;2022-10-18T12:32:33;0.00;0.00;0.00
69222;PMS7003;56514;51.816;-0.026;2022-10-18T12:35:21;0.00;0.00;0.00
69222;PMS7003;56514;51.816;-0.026;2022-10-18T12:41:20;0.00;0.00;0.00
69222;PMS7003;56514;51.816;-0.026;2022-10-18T12:44:20;0.00;0.00;0.00
69222;PMS7003;56514;51.816;-0.026;2022-10-18T12:47:23;0.00;0.00;0.00
69222;PMS7003;56514;51.816;-0.026;2022-10-18T12:53:24;0.00;0.00;0.00
69222;PMS7003;56514;51.816;-0.026;2022-10-18T13:02:23;0.00;0.00;0.00
69222;PMS7003;56514;51.816;-0.026;2022-10-18T13:05:47;0.00;0.00;0.00
69222;PMS7003;56514;51.816;-0.026;2022-10-18T13:11:27;0.00;0.00;0.00
69222;PMS7003;56514;51.816;-0.026;2022-10-18T13:17:50;0.00;0.00;0.00
69222;PMS7003;56514;51.816;-0.026;2022-10-18T13:20:44;0.00;0.00;0.00
69222;PMS7003;56514;51.816;-0.026;2022-10-18T13:26:57;0.00;0.00;0.00
69222;PMS7003;56514;51.816;-0.026;2022-10-18T13:35:51;0.00;0.00;0.00
69222;PMS7003;56514;51.816;-0.026;2022-10-18T13:38:44;0.00;0.00;0.00
69222;PMS7003;56514;51.816;-0.026;2022-10-18T13:44:36;0.00;0.00;0.00
69222;PMS7003;56514;51.816;-0.026;2022-10-18T13:47:34;0.50;0.50;0.50
69222;PMS7003;56514;51.816;-0.026;2022-10-18T13:50:21;0.00;0.00;0.00
69222;PMS7003;56514;51.816;-0.026;2022-10-18T13:56:14;0.00;0.00;0.00
69222;PMS7003;56514;51.816;-0.026;2022-10-18T13:59:20;0.00;0.00;0.00
69222;PMS7003;56514;51.816;-0.026;2022-10-18T14:02:32;0.00;0.00;0.00
69222;PMS7003;56514;51.816;-0.026;2022-10-18T14:14:30;0.00;0.00;0.00
69222;PMS7003;56514;51.816;-0.026;2022-10-18T14:23:18;0.00;0.00;0.00
69222;PMS7003;56514;51.816;-0.026;2022-10-18T14:26:08;0.00;0.00;0.00
69222;PMS7003;56514;51.816;-0.026;2022-10-18T14:29:02;0.25;0.25;0.25
69222;PMS7003;56514;51.816;-0.026;2022-10-18T14:31:52;0.00;0.00;0.00
69222;PMS7003;56514;51.816;-0.026;2022-10-18T14:34:37;0.00;0.00;0.00
69222;PMS7003;56514;51.816;-0.026;2022-10-18T14:37:29;0.00;0.00;0.00
69222;PMS7003;56514;51.816;-0.026;2022-10-18T14:40:31;0.50;0.50;0.25
69222;PMS7003;56514;51.816;-0.026;2022-10-18T14:43:18;0.00;0.00;0.00
69222;PMS7003;56514;51.816;-0.026;2022-10-18T14:46:07;0.00;0.00;0.00
69222;PMS7003;56514;51.816;-0.026;2022-10-18T14:49:03;0.00;0.00;0.00
69222;PMS7003;56514;51.816;-0.026;2022-10-18T14:51:52;0.00;0.00;0.00
69222;PMS7003;56514;51.816;-0.026;2022-10-18T14:54:39;0.00;0.00;0.00
69222;PMS7003;56514;51.816;-0.026;2022-10-18T14:57:34;0.00;0.00;0.00
69222;PMS7003;56514;51.816;-0.026;2022-10-18T15:00:54;0.25;0.25;0.00
69222;PMS7003;56514;51.816;-0.026;2022-10-18T15:03:33;0.00;0.00;0.00
69222;PMS7003;56514;51.816;-0.026;2022-10-18T15:06:19;0.75;0.75;0.25
69222;PMS7003;56514;51.816;-0.026;2022-10-18T15:09:04;0.50;0.50;0.25
69222;PMS7003;56514;51.816;-0.026;2022-10-18T15:11:49;0.50;0.50;0.25
69222;PMS7003;56514;51.816;-0.026;2022-10-18T15:14:35;0.00;0.00;0.00
69222;PMS7003;56514;51.816;-0.026;2022-10-18T15:17:23;1.00;1.00;1.00
69222;PMS7003;56514;51.816;-0.026;2022-10-18T15:20:24;0.00;0.00;0.00
69222;PMS7003;56514;51.816;-0.026;2022-10-18T15:23:20;1.00;1.00;1.00
69222;PMS7003;56514;51.816;-0.026;2022-10-18T15:26:07;0.00;0.00;0.00
69222;PMS7003;56514;51.816;-0.026;2022-10-18T15:28:56;1.00;1.00;1.00
69222;PMS7003;56514;51.816;-0.026;2022-10-18T15:31:43;0.25;0.25;0.25
69222;PMS7003;56514;51.816;-0.026;2022-10-18T15:34:28;1.00;1.00;1.00
69222;PMS7003;56514;51.816;-0.026;2022-10-18T15:37:17;0.50;0.50;0.25
69222;PMS7003;56514;51.816;-0.026;2022-10-18T15:46:27;0.00;0.00;0.00
69222;PMS7003;56514;51.816;-0.026;2022-10-18T15:54:56;0.00;0.00;0.00
69222;PMS7003;56514;51.816;-0.026;2022-10-18T15:57:42;0.00;0.00;0.00
69222;PMS7003;56514;51.816;-0.026;2022-10-18T16:00:27;0.00;0.00;0.00
69222;PMS7003;56514;51.816;-0.026;2022-10-18T16:03:13;0.00;0.00;0.00
69222;PMS7003;56514;51.816;-0.026;2022-10-18T16:06:03;1.00;1.00;0.50
69222;PMS7003;56514;51.816;-0.026;2022-10-18T16:08:51;0.00;0.00;0.00
69222;PMS7003;56514;51.816;-0.026;2022-10-18T16:11:37;0.00;0.00;0.00
69222;PMS7003;56514;51.816;-0.026;2022-10-18T16:14:22;0.00;0.00;0.00
69222;PMS7003;56514;51.816;-0.026;2022-10-18T16:17:09;0.00;0.00;0.00
69222;PMS7003;56514;51.816;-0.026;2022-10-18T16:20:00;0.00;0.00;0.00
69222;PMS7003;56514;51.816;-0.026;2022-10-18T16:22:45;0.00;0.00;0.00
69222;PMS7003;56514;51.816;-0.026;2022-10-18T16:25:30;0.00;0.00;0.00
69222;PMS7003;56514;51.816;-0.026;2022-10-18T16:28:16;0.00;0.00;0.00
69222;PMS7003;56514;51.816;-0.026;2022-10-18T16:31:06;0.00;0.00;0.00
69222;PMS7003;56514;51.816;-0.026;2022-10-18T16:33:51;0.00;0.00;0.00
69222;PMS7003;56514;51.816;-0.026;2022-10-18T16:36:38;0.00;0.00;0.00
69222;PMS7003;56514;51.816;-0.026;2022-10-18T16:39:23;0.00;0.00;0.00
69222;PMS7003;56514;51.816;-0.026;2022-10-18T16:42:08;0.00;0.00;0.00
69222;PMS7003;56514;51.816;-0.026;2022-10-18T16:44:53;0.00;0.00;0.00
69222;PMS7003;56514;51.816;-0.026;2022-10-18T16:47:38;0.00;0.00;0.00
69222;PMS7003;56514;51.816;-0.026;2022-10-18T16:50:22;0.00;0.00;0.00
69222;PMS7003;56514;51.816;-0.026;2022-10-18T16:53:07;0.00;0.00;0.00
69222;PMS7003;56514;51.816;-0.026;2022-10-18T16:55:53;0.25;0.25;0.00
69222;PMS7003;56514;51.816;-0.026;2022-10-18T16:58:41;0.00;0.00;0.00
69222;PMS7003;56514;51.816;-0.026;2022-10-18T17:01:27;0.00;0.00;0.00
69222;PMS7003;56514;51.816;-0.026;2022-10-18T17:04:13;0.00;0.00;0.00
69222;PMS7003;56514;51.816;-0.026;2022-10-18T17:06:58;0.00;0.00;0.00
69222;PMS7003;56514;51.816;-0.026;2022-10-18T17:09:46;0.00;0.00;0.00
69222;PMS7003;56514;51.816;-0.026;2022-10-18T17:12:39;0.00;0.00;0.00
69222;PMS7003;56514;51.816;-0.026;2022-10-18T17:15:26;0.00;0.00;0.00
69222;PMS7003;56514;51.816;-0.026;2022-10-18T17:18:12;0.00;0.00;0.00
69222;PMS7003;56514;51.816;-0.026;2022-10-18T17:21:02;0.00;0.00;0.00
69222;PMS7003;56514;51.816;-0.026;2022-10-18T17:23:47;0.00;0.00;0.00
69222;PMS7003;56514;51.816;-0.026;2022-10-18T17:26:32;1.00;1.00;1.00
69222;PMS7003;56514;51.816;-0.026;2022-10-18T17:29:17;1.75;1.75;1.00
69222;PMS7003;56514;51.816;-0.026;2022-10-18T17:32:02;0.25;0.25;0.25
69222;PMS7003;56514;51.816;-0.026;2022-10-18T17:34:49;0.75;0.75;0.75
69222;PMS7003;56514;51.816;-0.026;2022-10-18T17:37:34;0.00;0.00;0.00
69222;PMS7003;56514;51.816;-0.026;2022-10-18T17:40:20;1.00;1.00;1.00
69222;PMS7003;56514;51.816;-0.026;2022-10-18T17:43:07;1.00;1.00;1.00
69222;PMS7003;56514;51.816;-0.026;2022-10-18T17:45:53;1.25;1.25;1.00
69222;PMS7003;56514;51.816;-0.026;2022-10-18T17:48:42;1.25;1.25;1.00
69222;PMS7003;56514;51.816;-0.026;2022-10-18T17:51:26;1.00;1.00;1.00
69222;PMS7003;56514;51.816;-0.026;2022-10-18T17:54:12;1.00;1.00;0.75
69222;PMS7003;56514;51.816;-0.026;2022-10-18T17:56:57;2.00;2.00;1.50
69222;PMS7003;56514;51.816;-0.026;2022-10-18T17:59:42;2.50;1.25;1.00
69222;PMS7003;56514;51.816;-0.026;2022-10-18T18:02:27;4.00;4.00;1.50
69222;PMS7003;56514;51.816;-0.026;2022-10-18T18:05:13;1.25;1.25;1.00
69222;PMS7003;56514;51.816;-0.026;2022-10-18T18:07:59;4.00;4.00;1.50
69222;PMS7003;56514;51.816;-0.026;2022-10-18T18:10:45;1.75;1.75;1.00
69222;PMS7003;56514;51.816;-0.026;2022-10-18T18:13:29;1.00;1.00;1.00
69222;PMS7003;56514;51.816;-0.026;2022-10-18T18:16:18;2.00;2.00;1.25
69222;PMS7003;56514;51.816;-0.026;2022-10-18T18:19:05;0.75;0.75;0.75
69222;PMS7003;56514;51.816;-0.026;2022-10-18T18:21:51;1.00;1.00;1.00
69222;PMS7003;56514;51.816;-0.026;2022-10-18T18:24:38;1.00;1.00;1.00
69222;PMS7003;56514;51.816;-0.026;2022-10-18T18:27:22;1.00;1.00;1.00
69222;PMS7003;56514;51.816;-0.026;2022-10-18T18:30:08;1.00;1.00;1.00
69222;PMS7003;56514;51.816;-0.026;2022-10-18T18:32:53;4.00;4.00;3.50
69222;PMS7003;56514;51.816;-0.026;2022-10-18T18:35:38;3.50;3.50;2.00
69222;PMS7003;56514;51.816;-0.026;2022-10-18T18:38:23;2.00;2.00;1.00
69222;PMS7003;56514;51.816;-0.026;2022-10-18T18:41:14;4.00;2.00;1.50
69222;PMS7003;56514;51.816;-0.026;2022-10-18T18:44:01;1.25;1.25;1.00
69222;PMS7003;56514;51.816;-0.026;2022-10-18T18:46:48;1.00;1.00;1.00
69222;PMS7003;56514;51.816;-0.026;2022-10-18T18:49:35;1.75;1.75;1.25
69222;PMS7003;56514;51.816;-0.026;2022-10-18T18:52:20;1.75;1.75;1.50
69222;PMS7003;56514;51.816;-0.026;2022-10-18T18:55:05;1.00;1.00;1.00
69222;PMS7003;56514;51.816;-0.026;2022-10-18T18:57:50;1.00;1.00;0.50
69222;PMS7003;56514;51.816;-0.026;2022-10-18T19:00:38;0.00;0.00;0.00
69222;PMS7003;56514;51.816;-0.026;2022-10-18T19:03:25;1.00;1.00;1.00